sensor_id;sensor_type;location;lat;lon;timestamp;temperature;humidity
67131;HTU21D;54051;53.464;49.532;2023-05-19T00:00:56;12.86;57.41
67131;HTU21D;54051;53.464;49.532;2023-05-19T00:03:23;12.86;57.22
67131;HTU21D;54051;53.464;49.532;2023-05-19T00:05:50;12.77;57.46
67131;HTU21D;54051;53.464;49.532;2023-05-19T00:08:18;12.77;56.92
67131;HTU21D;54051;53.464;49.532;2023-05-19T00:10:44;12.74;57.35
67131;HTU21D;54051;53.464;49.532;2023-05-19T00:13:10;12.76;57.17
67131;HTU21D;54051;53.464;49.532;2023-05-19T00:15:36;12.74;57.39
67131;HTU21D;54051;53.464;49.532;2023-05-19T00:18:02;12.74;57.51
67131;HTU21D;54051;53.464;49.532;2023-05-19T00:20:28;12.88;57.33
67131;HTU21D;54051;53.464;49.532;2023-05-19T00:22:53;12.93;57.14
67131;HTU21D;54051;53.464;49.532;2023-05-19T00:25:19;12.94;57.14
67131;HTU21D;54051;53.464;49.532;2023-05-19T00:27:45;12.92;57.15
67131;HTU21D;54051;53.464;49.532;2023-05-19T00:30:11;12.84;57.96
67131;HTU21D;54051;53.464;49.532;2023-05-19T00:32:37;12.77;58.37
67131;HTU21D;54051;53.464;49.532;2023-05-19T00:35:04;12.79;58.25
67131;HTU21D;54051;53.464;49.532;2023-05-19T00:37:30;12.78;57.50
67131;HTU21D;54051;53.464;49.532;2023-05-19T00:39:55;12.73;57.98
67131;HTU21D;54051;53.464;49.532;2023-05-19T00:42:22;12.72;57.98
67131;HTU21D;54051;53.464;49.532;2023-05-19T00:44:48;12.67;58.13
67131;HTU21D;54051;53.464;49.532;2023-05-19T00:47:14;12.66;57.77
67131;HTU21D;54051;53.464;49.532;2023-05-19T00:49:41;12.78;57.86
67131;HTU21D;54051;53.464;49.532;2023-05-19T00:52:06;12.76;57.00
67131;HTU21D;54051;53.464;49.532;2023-05-19T00:54:32;12.71;58.03
67131;HTU21D;54051;53.464;49.532;2023-05-19T00:56:58;12.66;58.18
67131;HTU21D;54051;53.464;49.532;2023-05-19T00:59:25;12.61;58.04
67131;HTU21D;54051;53.464;49.532;2023-05-19T01:01:51;12.62;57.80
67131;HTU21D;54051;53.464;49.532;2023-05-19T01:04:18;12.62;58.17
67131;HTU21D;54051;53.464;49.532;2023-05-19T01:06:47;12.63;57.96
67131;HTU21D;54051;53.464;49.532;2023-05-19T01:09:22;12.60;58.70
67131;HTU21D;54051;53.464;49.532;2023-05-19T01:11:49;12.55;58.67
67131;HTU21D;54051;53.464;49.532;2023-05-19T01:14:14;12.55;59.24
67131;HTU21D;54051;53.464;49.532;2023-05-19T01:32:42;12.71;59.28
67131;HTU21D;54051;53.464;49.532;2023-05-19T01:35:09;12.71;59.88
67131;HTU21D;54051;53.464;49.532;2023-05-19T01:37:37;12.81;59.49
67131;HTU21D;54051;53.464;49.532;2023-05-19T01:40:04;12.87;59.19
67131;HTU21D;54051;53.464;49.532;2023-05-19T01:42:30;13.03;59.40
67131;HTU21D;54051;53.464;49.532;2023-05-19T01:45:02;13.12;58.96
67131;HTU21D;54051;53.464;49.532;2023-05-19T01:47:28;13.14;59.19
67131;HTU21D;54051;53.464;49.532;2023-05-19T01:49:54;13.20;59.46
67131;HTU21D;54051;53.464;49.532;2023-05-19T01:52:19;13.22;59.64
67131;HTU21D;54051;53.464;49.532;2023-05-19T01:54:45;13.23;60.09
67131;HTU21D;54051;53.464;49.532;2023-05-19T01:57:28;13.24;59.89
67131;HTU21D;54051;53.464;49.532;2023-05-19T02:08:22;17.26;48.70
67131;HTU21D;54051;53.464;49.532;2023-05-19T02:10:50;19.43;40.93
67131;HTU21D;54051;53.464;49.532;2023-05-19T02:13:17;20.62;37.40
67131;HTU21D;54051;53.464;49.532;2023-05-19T02:15:45;21.36;34.77
67131;HTU21D;54051;53.464;49.532;2023-05-19T02:18:12;21.82;34.58
67131;HTU21D;54051;53.464;49.532;2023-05-19T02:20:38;22.31;32.81
67131;HTU21D;54051;53.464;49.532;2023-05-19T02:23:04;23.45;30.69
67131;HTU21D;54051;53.464;49.532;2023-05-19T02:25:30;24.00;29.44
67131;HTU21D;54051;53.464;49.532;2023-05-19T02:27:57;24.35;28.79
67131;HTU21D;54051;53.464;49.532;2023-05-19T02:30:23;24.93;28.16
67131;HTU21D;54051;53.464;49.532;2023-05-19T02:32:49;25.20;27.71
67131;HTU21D;54051;53.464;49.532;2023-05-19T02:35:15;24.72;28.15
67131;HTU21D;54051;53.464;49.532;2023-05-19T02:37:41;23.49;30.89
67131;HTU21D;54051;53.464;49.532;2023-05-19T02:40:07;22.53;32.65
67131;HTU21D;54051;53.464;49.532;2023-05-19T02:42:33;22.28;33.42
67131;HTU21D;54051;53.464;49.532;2023-05-19T02:44:59;23.46;31.03
67131;HTU21D;54051;53.464;49.532;2023-05-19T02:47:25;23.69;30.90
67131;HTU21D;54051;53.464;49.532;2023-05-19T02:49:50;25.02;29.54
67131;HTU21D;54051;53.464;49.532;2023-05-19T02:52:16;25.16;29.09
67131;HTU21D;54051;53.464;49.532;2023-05-19T02:54:42;25.79;27.94
67131;HTU21D;54051;53.464;49.532;2023-05-19T02:57:08;25.33;28.67
67131;HTU21D;54051;53.464;49.532;2023-05-19T02:59:34;25.28;28.93
67131;HTU21D;54051;53.464;49.532;2023-05-19T03:02:01;25.54;28.31
67131;HTU21D;54051;53.464;49.532;2023-05-19T03:04:27;26.13;27.63
67131;HTU21D;54051;53.464;49.532;2023-05-19T03:06:54;26.53;26.71
67131;HTU21D;54051;53.464;49.532;2023-05-19T03:09:22;25.87;27.81
67131;HTU21D;54051;53.464;49.532;2023-05-19T03:11:48;23.75;31.92
67131;HTU21D;54051;53.464;49.532;2023-05-19T03:14:14;23.74;32.51
67131;HTU21D;54051;53.464;49.532;2023-05-19T03:16:40;25.86;28.67
67131;HTU21D;54051;53.464;49.532;2023-05-19T03:19:06;26.76;26.42
67131;HTU21D;54051;53.464;49.532;2023-05-19T03:21:32;26.79;26.75
67131;HTU21D;54051;53.464;49.532;2023-05-19T03:23:59;27.79;24.90
67131;HTU21D;54051;53.464;49.532;2023-05-19T03:26:25;27.84;24.20
67131;HTU21D;54051;53.464;49.532;2023-05-19T03:28:51;27.21;24.89
67131;HTU21D;54051;53.464;49.532;2023-05-19T03:31:17;26.86;25.46
67131;HTU21D;54051;53.464;49.532;2023-05-19T03:33:45;26.80;26.28
67131;HTU21D;54051;53.464;49.532;2023-05-19T03:36:12;26.96;26.14
67131;HTU21D;54051;53.464;49.532;2023-05-19T03:38:38;27.58;24.72
67131;HTU21D;54051;53.464;49.532;2023-05-19T03:41:04;28.05;24.01
67131;HTU21D;54051;53.464;49.532;2023-05-19T03:43:30;27.91;25.29
67131;HTU21D;54051;53.464;49.532;2023-05-19T03:45:56;28.52;24.13
67131;HTU21D;54051;53.464;49.532;2023-05-19T03:48:23;29.19;21.98
67131;HTU21D;54051;53.464;49.532;2023-05-19T03:50:49;29.49;21.47
67131;HTU21D;54051;53.464;49.532;2023-05-19T03:53:15;29.66;21.44
67131;HTU21D;54051;53.464;49.532;2023-05-19T03:55:41;29.66;21.57
67131;HTU21D;54051;53.464;49.532;2023-05-19T03:58:07;29.79;21.72
67131;HTU21D;54051;53.464;49.532;2023-05-19T04:00:35;30.42;21.51
67131;HTU21D;54051;53.464;49.532;2023-05-19T04:03:01;31.05;20.42
67131;HTU21D;54051;53.464;49.532;2023-05-19T04:05:27;31.02;20.41
67131;HTU21D;54051;53.464;49.532;2023-05-19T04:07:53;31.11;19.72
67131;HTU21D;54051;53.464;49.532;2023-05-19T04:10:19;31.61;19.25
67131;HTU21D;54051;53.464;49.532;2023-05-19T04:12:46;31.89;19.30
67131;HTU21D;54051;53.464;49.532;2023-05-19T04:15:12;32.10;19.15
67131;HTU21D;54051;53.464;49.532;2023-05-19T04:17:38;32.14;18.75
67131;HTU21D;54051;53.464;49.532;2023-05-19T04:20:05;32.85;18.54
67131;HTU21D;54051;53.464;49.532;2023-05-19T04:22:31;32.79;18.93
67131;HTU21D;54051;53.464;49.532;2023-05-19T04:24:57;32.41;19.12
67131;HTU21D;54051;53.464;49.532;2023-05-19T04:27:23;32.34;18.93
67131;HTU21D;54051;53.464;49.532;2023-05-19T04:29:50;32.39;17.85
67131;HTU21D;54051;53.464;49.532;2023-05-19T04:32:20;33.02;17.51
67131;HTU21D;54051;53.464;49.532;2023-05-19T04:34:47;33.52;17.10
67131;HTU21D;54051;53.464;49.532;2023-05-19T04:37:13;33.56;16.95
67131;HTU21D;54051;53.464;49.532;2023-05-19T04:39:41;34.65;16.23
67131;HTU21D;54051;53.464;49.532;2023-05-19T04:42:08;33.88;16.25
67131;HTU21D;54051;53.464;49.532;2023-05-19T04:44:36;33.16;17.61
67131;HTU21D;54051;53.464;49.532;2023-05-19T04:47:05;33.29;17.97
67131;HTU21D;54051;53.464;49.532;2023-05-19T04:49:36;33.22;15.34
67131;HTU21D;54051;53.464;49.532;2023-05-19T04:52:06;32.74;16.50
67131;HTU21D;54051;53.464;49.532;2023-05-19T04:54:35;32.12;16.43
67131;HTU21D;54051;53.464;49.532;2023-05-19T04:57:02;31.97;16.74
67131;HTU21D;54051;53.464;49.532;2023-05-19T04:59:28;31.67;17.72
67131;HTU21D;54051;53.464;49.532;2023-05-19T05:01:54;31.81;17.05
67131;HTU21D;54051;53.464;49.532;2023-05-19T05:04:21;31.65;18.22
67131;HTU21D;54051;53.464;49.532;2023-05-19T05:06:48;30.96;17.88
67131;HTU21D;54051;53.464;49.532;2023-05-19T05:09:14;29.98;18.49
67131;HTU21D;54051;53.464;49.532;2023-05-19T05:11:41;29.61;19.44
67131;HTU21D;54051;53.464;49.532;2023-05-19T05:14:07;31.10;17.38
67131;HTU21D;54051;53.464;49.532;2023-05-19T05:16:33;31.12;17.10
67131;HTU21D;54051;53.464;49.532;2023-05-19T05:19:00;32.47;15.38
67131;HTU21D;54051;53.464;49.532;2023-05-19T05:21:26;32.50;16.06
67131;HTU21D;54051;53.464;49.532;2023-05-19T05:23:53;33.00;15.74
67131;HTU21D;54051;53.464;49.532;2023-05-19T05:26:19;33.88;13.21
67131;HTU21D;54051;53.464;49.532;2023-05-19T05:28:49;32.96;15.20
67131;HTU21D;54051;53.464;49.532;2023-05-19T05:31:18;31.92;16.10
67131;HTU21D;54051;53.464;49.532;2023-05-19T05:33:44;31.66;16.93
67131;HTU21D;54051;53.464;49.532;2023-05-19T05:36:10;30.98;17.35
67131;HTU21D;54051;53.464;49.532;2023-05-19T05:38:37;30.39;18.54
67131;HTU21D;54051;53.464;49.532;2023-05-19T05:41:03;30.04;19.30
67131;HTU21D;54051;53.464;49.532;2023-05-19T05:43:29;29.58;19.99
67131;HTU21D;54051;53.464;49.532;2023-05-19T05:45:56;29.98;19.79
67131;HTU21D;54051;53.464;49.532;2023-05-19T05:48:22;30.25;18.92
67131;HTU21D;54051;53.464;49.532;2023-05-19T05:50:48;30.60;18.83
67131;HTU21D;54051;53.464;49.532;2023-05-19T05:53:16;30.69;19.11
67131;HTU21D;54051;53.464;49.532;2023-05-19T05:55:43;30.61;19.67
67131;HTU21D;54051;53.464;49.532;2023-05-19T05:58:09;31.29;18.04
67131;HTU21D;54051;53.464;49.532;2023-05-19T06:00:36;31.23;17.67
67131;HTU21D;54051;53.464;49.532;2023-05-19T06:03:02;30.64;18.46
67131;HTU21D;54051;53.464;49.532;2023-05-19T06:05:29;30.49;19.33
67131;HTU21D;54051;53.464;49.532;2023-05-19T06:07:55;31.18;17.86
67131;HTU21D;54051;53.464;49.532;2023-05-19T06:10:21;31.04;17.41
67131;HTU21D;54051;53.464;49.532;2023-05-19T06:12:48;31.28;17.16
67131;HTU21D;54051;53.464;49.532;2023-05-19T06:15:14;31.49;16.97
67131;HTU21D;54051;53.464;49.532;2023-05-19T06:17:40;31.63;17.19
67131;HTU21D;54051;53.464;49.532;2023-05-19T06:20:06;30.95;17.53
67131;HTU21D;54051;53.464;49.532;2023-05-19T06:22:34;30.07;18.50
67131;HTU21D;54051;53.464;49.532;2023-05-19T06:25:01;30.05;19.12
67131;HTU21D;54051;53.464;49.532;2023-05-19T06:27:27;29.75;18.89
67131;HTU21D;54051;53.464;49.532;2023-05-19T06:29:57;29.79;18.35
67131;HTU21D;54051;53.464;49.532;2023-05-19T06:32:23;29.53;19.47
67131;HTU21D;54051;53.464;49.532;2023-05-19T06:34:49;29.50;19.22
67131;HTU21D;54051;53.464;49.532;2023-05-19T06:37:22;30.38;18.50
67131;HTU21D;54051;53.464;49.532;2023-05-19T06:39:49;30.30;18.87
67131;HTU21D;54051;53.464;49.532;2023-05-19T06:42:17;30.46;18.94
67131;HTU21D;54051;53.464;49.532;2023-05-19T06:44:52;29.91;19.12
67131;HTU21D;54051;53.464;49.532;2023-05-19T06:47:18;30.02;18.75
67131;HTU21D;54051;53.464;49.532;2023-05-19T06:49:45;29.19;19.72
67131;HTU21D;54051;53.464;49.532;2023-05-19T06:52:15;29.95;19.05
67131;HTU21D;54051;53.464;49.532;2023-05-19T06:54:41;30.32;18.23
67131;HTU21D;54051;53.464;49.532;2023-05-19T06:57:07;30.77;17.85
67131;HTU21D;54051;53.464;49.532;2023-05-19T06:59:33;31.39;16.90
67131;HTU21D;54051;53.464;49.532;2023-05-19T07:02:02;31.06;17.28
67131;HTU21D;54051;53.464;49.532;2023-05-19T07:04:29;31.14;16.95
67131;HTU21D;54051;53.464;49.532;2023-05-19T07:06:55;31.04;16.88
67131;HTU21D;54051;53.464;49.532;2023-05-19T07:09:21;31.57;16.09
67131;HTU21D;54051;53.464;49.532;2023-05-19T07:11:47;31.60;16.26
67131;HTU21D;54051;53.464;49.532;2023-05-19T07:14:13;31.87;15.71
67131;HTU21D;54051;53.464;49.532;2023-05-19T07:16:40;31.64;15.82
67131;HTU21D;54051;53.464;49.532;2023-05-19T07:19:06;31.61;15.87
67131;HTU21D;54051;53.464;49.532;2023-05-19T07:21:32;30.79;17.89
67131;HTU21D;54051;53.464;49.532;2023-05-19T07:23:58;29.68;19.34
67131;HTU21D;54051;53.464;49.532;2023-05-19T07:26:24;30.04;16.83
67131;HTU21D;54051;53.464;49.532;2023-05-19T07:28:51;30.52;17.18
67131;HTU21D;54051;53.464;49.532;2023-05-19T07:31:17;30.93;15.64
67131;HTU21D;54051;53.464;49.532;2023-05-19T07:33:44;30.97;15.34
67131;HTU21D;54051;53.464;49.532;2023-05-19T07:36:10;30.79;16.54
67131;HTU21D;54051;53.464;49.532;2023-05-19T07:38:36;30.65;16.52
67131;HTU21D;54051;53.464;49.532;2023-05-19T07:41:02;30.94;15.43
67131;HTU21D;54051;53.464;49.532;2023-05-19T07:43:28;31.24;15.19
67131;HTU21D;54051;53.464;49.532;2023-05-19T07:45:54;32.09;15.03
67131;HTU21D;54051;53.464;49.532;2023-05-19T07:48:21;31.53;16.06
67131;HTU21D;54051;53.464;49.532;2023-05-19T07:50:49;30.81;18.51
67131;HTU21D;54051;53.464;49.532;2023-05-19T07:53:15;30.64;17.97
67131;HTU21D;54051;53.464;49.532;2023-05-19T07:55:42;31.23;17.38
67131;HTU21D;54051;53.464;49.532;2023-05-19T07:58:08;31.58;16.34
67131;HTU21D;54051;53.464;49.532;2023-05-19T08:00:34;31.10;17.88
67131;HTU21D;54051;53.464;49.532;2023-05-19T08:03:00;30.97;17.40
67131;HTU21D;54051;53.464;49.532;2023-05-19T08:08:18;27.21;24.14
67131;HTU21D;54051;53.464;49.532;2023-05-19T08:10:44;26.72;23.74
67131;HTU21D;54051;53.464;49.532;2023-05-19T08:13:11;26.80;22.57
67131;HTU21D;54051;53.464;49.532;2023-05-19T08:15:37;26.41;28.07
67131;HTU21D;54051;53.464;49.532;2023-05-19T08:18:04;26.35;28.10
67131;HTU21D;54051;53.464;49.532;2023-05-19T08:20:30;26.39;27.36
67131;HTU21D;54051;53.464;49.532;2023-05-19T08:22:56;26.63;24.65
67131;HTU21D;54051;53.464;49.532;2023-05-19T08:25:22;26.28;30.35
67131;HTU21D;54051;53.464;49.532;2023-05-19T08:27:49;25.38;32.86
67131;HTU21D;54051;53.464;49.532;2023-05-19T08:30:15;24.71;26.14
67131;HTU21D;54051;53.464;49.532;2023-05-19T08:32:41;24.76;25.23
67131;HTU21D;54051;53.464;49.532;2023-05-19T08:35:08;24.78;25.21
67131;HTU21D;54051;53.464;49.532;2023-05-19T08:37:34;24.62;24.96
67131;HTU21D;54051;53.464;49.532;2023-05-19T08:40:03;25.43;26.86
67131;HTU21D;54051;53.464;49.532;2023-05-19T08:42:52;25.95;30.32
67131;HTU21D;54051;53.464;49.532;2023-05-19T08:45:19;25.59;29.50
67131;HTU21D;54051;53.464;49.532;2023-05-19T08:47:45;25.13;25.95
67131;HTU21D;54051;53.464;49.532;2023-05-19T08:50:16;24.59;30.10
67131;HTU21D;54051;53.464;49.532;2023-05-19T08:52:52;24.23;30.87
67131;HTU21D;54051;53.464;49.532;2023-05-19T08:55:35;24.08;34.02
67131;HTU21D;54051;53.464;49.532;2023-05-19T08:58:06;23.97;34.14
67131;HTU21D;54051;53.464;49.532;2023-05-19T09:00:32;23.98;33.65
67131;HTU21D;54051;53.464;49.532;2023-05-19T09:03:00;23.83;35.02
67131;HTU21D;54051;53.464;49.532;2023-05-19T09:05:27;23.40;34.26
67131;HTU21D;54051;53.464;49.532;2023-05-19T09:07:53;23.20;34.18
67131;HTU21D;54051;53.464;49.532;2023-05-19T09:10:19;23.23;34.57
67131;HTU21D;54051;53.464;49.532;2023-05-19T09:12:45;23.31;34.62
67131;HTU21D;54051;53.464;49.532;2023-05-19T09:15:13;23.16;35.69
67131;HTU21D;54051;53.464;49.532;2023-05-19T09:17:41;23.08;35.91
67131;HTU21D;54051;53.464;49.532;2023-05-19T09:20:09;23.09;36.43
67131;HTU21D;54051;53.464;49.532;2023-05-19T09:22:41;23.37;33.59
67131;HTU21D;54051;53.464;49.532;2023-05-19T09:25:16;23.40;33.78
67131;HTU21D;54051;53.464;49.532;2023-05-19T09:27:42;23.96;33.34
67131;HTU21D;54051;53.464;49.532;2023-05-19T09:30:08;24.04;33.36
67131;HTU21D;54051;53.464;49.532;2023-05-19T09:32:35;24.33;33.13
67131;HTU21D;54051;53.464;49.532;2023-05-19T09:35:01;24.28;34.86
67131;HTU21D;54051;53.464;49.532;2023-05-19T09:37:27;24.23;34.18
67131;HTU21D;54051;53.464;49.532;2023-05-19T09:39:54;23.97;33.44
67131;HTU21D;54051;53.464;49.532;2023-05-19T09:42:24;23.24;37.28
67131;HTU21D;54051;53.464;49.532;2023-05-19T09:44:58;23.00;37.46
67131;HTU21D;54051;53.464;49.532;2023-05-19T09:47:25;23.18;38.30
67131;HTU21D;54051;53.464;49.532;2023-05-19T09:49:52;23.30;37.54
67131;HTU21D;54051;53.464;49.532;2023-05-19T09:52:18;22.84;37.68
67131;HTU21D;54051;53.464;49.532;2023-05-19T09:54:45;22.27;38.25
67131;HTU21D;54051;53.464;49.532;2023-05-19T09:57:11;22.52;36.78
67131;HTU21D;54051;53.464;49.532;2023-05-19T09:59:38;22.90;35.66
67131;HTU21D;54051;53.464;49.532;2023-05-19T10:02:05;23.22;35.65
67131;HTU21D;54051;53.464;49.532;2023-05-19T10:04:34;22.97;35.28
67131;HTU21D;54051;53.464;49.532;2023-05-19T10:07:00;22.79;37.20
67131;HTU21D;54051;53.464;49.532;2023-05-19T10:09:30;22.54;38.94
67131;HTU21D;54051;53.464;49.532;2023-05-19T10:11:57;22.03;41.10
67131;HTU21D;54051;53.464;49.532;2023-05-19T10:14:25;22.19;39.96
67131;HTU21D;54051;53.464;49.532;2023-05-19T10:16:52;22.37;41.34
67131;HTU21D;54051;53.464;49.532;2023-05-19T10:19:22;22.73;38.26
67131;HTU21D;54051;53.464;49.532;2023-05-19T10:21:48;23.26;37.46
67131;HTU21D;54051;53.464;49.532;2023-05-19T10:24:14;23.02;37.10
67131;HTU21D;54051;53.464;49.532;2023-05-19T10:26:42;22.99;38.30
67131;HTU21D;54051;53.464;49.532;2023-05-19T10:29:09;23.27;38.81
67131;HTU21D;54051;53.464;49.532;2023-05-19T10:31:35;23.32;37.56
67131;HTU21D;54051;53.464;49.532;2023-05-19T10:39:09;22.23;41.55
67131;HTU21D;54051;53.464;49.532;2023-05-19T10:46:48;22.38;41.18
67131;HTU21D;54051;53.464;49.532;2023-05-19T10:49:20;22.60;38.85
67131;HTU21D;54051;53.464;49.532;2023-05-19T10:51:47;22.35;44.38
67131;HTU21D;54051;53.464;49.532;2023-05-19T10:54:13;22.48;44.57
67131;HTU21D;54051;53.464;49.532;2023-05-19T10:56:42;22.47;44.45
67131;HTU21D;54051;53.464;49.532;2023-05-19T10:59:29;22.13;43.49
67131;HTU21D;54051;53.464;49.532;2023-05-19T11:01:56;22.25;42.10
67131;HTU21D;54051;53.464;49.532;2023-05-19T11:04:37;22.56;40.55
67131;HTU21D;54051;53.464;49.532;2023-05-19T11:07:03;22.84;39.74
67131;HTU21D;54051;53.464;49.532;2023-05-19T11:09:29;22.79;38.01
67131;HTU21D;54051;53.464;49.532;2023-05-19T11:12:00;22.56;37.70
67131;HTU21D;54051;53.464;49.532;2023-05-19T11:14:28;22.79;37.11
67131;HTU21D;54051;53.464;49.532;2023-05-19T11:16:57;23.12;37.16
67131;HTU21D;54051;53.464;49.532;2023-05-19T11:21:50;22.94;37.83
67131;HTU21D;54051;53.464;49.532;2023-05-19T11:24:33;22.72;33.93
67131;HTU21D;54051;53.464;49.532;2023-05-19T11:29:45;22.88;38.36
67131;HTU21D;54051;53.464;49.532;2023-05-19T11:32:13;22.81;37.82
67131;HTU21D;54051;53.464;49.532;2023-05-19T11:34:40;22.91;36.98
67131;HTU21D;54051;53.464;49.532;2023-05-19T11:37:06;23.22;36.28
67131;HTU21D;54051;53.464;49.532;2023-05-19T11:39:34;22.92;38.11
67131;HTU21D;54051;53.464;49.532;2023-05-19T11:42:00;23.00;37.29
67131;HTU21D;54051;53.464;49.532;2023-05-19T11:44:26;23.52;36.52
67131;HTU21D;54051;53.464;49.532;2023-05-19T11:46:52;23.51;36.21
67131;HTU21D;54051;53.464;49.532;2023-05-19T11:49:19;23.37;37.29
67131;HTU21D;54051;53.464;49.532;2023-05-19T11:51:45;23.49;36.74
67131;HTU21D;54051;53.464;49.532;2023-05-19T11:54:11;23.34;35.39
67131;HTU21D;54051;53.464;49.532;2023-05-19T11:56:41;23.39;33.90
67131;HTU21D;54051;53.464;49.532;2023-05-19T11:59:07;23.24;31.48
67131;HTU21D;54051;53.464;49.532;2023-05-19T12:01:34;23.10;32.96
67131;HTU21D;54051;53.464;49.532;2023-05-19T12:04:01;22.75;32.64
67131;HTU21D;54051;53.464;49.532;2023-05-19T12:06:28;22.50;34.41
67131;HTU21D;54051;53.464;49.532;2023-05-19T12:08:55;22.48;32.37
67131;HTU21D;54051;53.464;49.532;2023-05-19T12:11:21;22.52;34.02
67131;HTU21D;54051;53.464;49.532;2023-05-19T12:13:48;22.77;29.42
67131;HTU21D;54051;53.464;49.532;2023-05-19T12:16:18;22.88;23.91
67131;HTU21D;54051;53.464;49.532;2023-05-19T12:18:44;22.82;21.06
67131;HTU21D;54051;53.464;49.532;2023-05-19T12:21:11;22.83;20.24
67131;HTU21D;54051;53.464;49.532;2023-05-19T12:23:37;22.76;20.58
67131;HTU21D;54051;53.464;49.532;2023-05-19T12:26:03;22.79;20.54
67131;HTU21D;54051;53.464;49.532;2023-05-19T12:28:29;22.75;20.78
67131;HTU21D;54051;53.464;49.532;2023-05-19T12:30:56;22.68;21.74
67131;HTU21D;54051;53.464;49.532;2023-05-19T12:33:23;22.60;22.29
67131;HTU21D;54051;53.464;49.532;2023-05-19T12:35:49;22.61;21.94
67131;HTU21D;54051;53.464;49.532;2023-05-19T12:38:16;22.62;22.59
67131;HTU21D;54051;53.464;49.532;2023-05-19T12:40:43;22.73;22.23
67131;HTU21D;54051;53.464;49.532;2023-05-19T12:43:19;22.85;22.53
67131;HTU21D;54051;53.464;49.532;2023-05-19T12:45:46;22.81;21.56
67131;HTU21D;54051;53.464;49.532;2023-05-19T12:48:12;22.70;22.03
67131;HTU21D;54051;53.464;49.532;2023-05-19T12:50:40;22.47;22.20
67131;HTU21D;54051;53.464;49.532;2023-05-19T12:53:07;22.24;22.45
67131;HTU21D;54051;53.464;49.532;2023-05-19T12:55:37;22.21;22.71
67131;HTU21D;54051;53.464;49.532;2023-05-19T12:58:04;22.04;23.27
67131;HTU21D;54051;53.464;49.532;2023-05-19T13:00:31;22.02;23.40
67131;HTU21D;54051;53.464;49.532;2023-05-19T13:03:01;21.95;23.82
67131;HTU21D;54051;53.464;49.532;2023-05-19T13:05:30;21.92;23.82
67131;HTU21D;54051;53.464;49.532;2023-05-19T13:07:57;21.92;24.08
67131;HTU21D;54051;53.464;49.532;2023-05-19T13:10:23;21.90;24.58
67131;HTU21D;54051;53.464;49.532;2023-05-19T13:13:13;21.94;24.34
67131;HTU21D;54051;53.464;49.532;2023-05-19T13:15:40;21.92;24.08
67131;HTU21D;54051;53.464;49.532;2023-05-19T13:18:07;21.87;24.88
67131;HTU21D;54051;53.464;49.532;2023-05-19T13:20:34;21.84;24.37
67131;HTU21D;54051;53.464;49.532;2023-05-19T13:23:00;21.85;24.71
67131;HTU21D;54051;53.464;49.532;2023-05-19T13:25:26;22.13;23.98
67131;HTU21D;54051;53.464;49.532;2023-05-19T13:27:53;22.13;24.34
67131;HTU21D;54051;53.464;49.532;2023-05-19T13:30:24;22.20;25.58
67131;HTU21D;54051;53.464;49.532;2023-05-19T13:32:50;22.24;25.79
67131;HTU21D;54051;53.464;49.532;2023-05-19T13:35:17;22.33;26.30
67131;HTU21D;54051;53.464;49.532;2023-05-19T13:37:43;22.02;27.35
67131;HTU21D;54051;53.464;49.532;2023-05-19T13:40:09;21.80;28.28
67131;HTU21D;54051;53.464;49.532;2023-05-19T13:42:35;21.64;28.52
67131;HTU21D;54051;53.464;49.532;2023-05-19T13:45:01;21.51;28.87
67131;HTU21D;54051;53.464;49.532;2023-05-19T13:47:28;21.03;30.18
67131;HTU21D;54051;53.464;49.532;2023-05-19T13:49:54;20.89;30.77
67131;HTU21D;54051;53.464;49.532;2023-05-19T13:52:21;21.10;30.35
67131;HTU21D;54051;53.464;49.532;2023-05-19T13:54:47;20.94;30.63
67131;HTU21D;54051;53.464;49.532;2023-05-19T13:57:14;20.87;31.04
67131;HTU21D;54051;53.464;49.532;2023-05-19T13:59:41;20.84;30.97
67131;HTU21D;54051;53.464;49.532;2023-05-19T14:02:10;20.86;31.12
67131;HTU21D;54051;53.464;49.532;2023-05-19T14:04:36;20.86;30.69
67131;HTU21D;54051;53.464;49.532;2023-05-19T14:07:07;20.78;30.50
67131;HTU21D;54051;53.464;49.532;2023-05-19T14:09:35;20.71;30.41
67131;HTU21D;54051;53.464;49.532;2023-05-19T14:12:01;20.63;30.57
67131;HTU21D;54051;53.464;49.532;2023-05-19T14:14:27;20.70;30.25
67131;HTU21D;54051;53.464;49.532;2023-05-19T14:16:54;20.64;30.20
67131;HTU21D;54051;53.464;49.532;2023-05-19T14:19:20;20.61;30.17
67131;HTU21D;54051;53.464;49.532;2023-05-19T14:21:48;20.64;29.83
67131;HTU21D;54051;53.464;49.532;2023-05-19T14:24:14;20.69;29.12
67131;HTU21D;54051;53.464;49.532;2023-05-19T14:26:41;20.78;28.84
67131;HTU21D;54051;53.464;49.532;2023-05-19T14:29:15;20.64;28.59
67131;HTU21D;54051;53.464;49.532;2023-05-19T14:31:41;20.62;28.74
67131;HTU21D;54051;53.464;49.532;2023-05-19T14:34:10;20.69;28.77
67131;HTU21D;54051;53.464;49.532;2023-05-19T14:36:36;20.69;28.71
67131;HTU21D;54051;53.464;49.532;2023-05-19T14:39:01;20.69;28.54
67131;HTU21D;54051;53.464;49.532;2023-05-19T14:41:27;20.62;28.00
67131;HTU21D;54051;53.464;49.532;2023-05-19T14:43:53;20.37;28.71
67131;HTU21D;54051;53.464;49.532;2023-05-19T14:46:19;20.36;29.00
67131;HTU21D;54051;53.464;49.532;2023-05-19T14:48:45;20.45;28.48
67131;HTU21D;54051;53.464;49.532;2023-05-19T14:51:11;20.44;29.14
67131;HTU21D;54051;53.464;49.532;2023-05-19T14:53:36;20.41;28.68
67131;HTU21D;54051;53.464;49.532;2023-05-19T14:56:02;20.33;29.14
67131;HTU21D;54051;53.464;49.532;2023-05-19T14:58:28;20.21;29.57
67131;HTU21D;54051;53.464;49.532;2023-05-19T15:01:29;20.19;29.80
67131;HTU21D;54051;53.464;49.532;2023-05-19T15:03:55;20.20;30.13
67131;HTU21D;54051;53.464;49.532;2023-05-19T15:06:21;20.16;30.58
67131;HTU21D;54051;53.464;49.532;2023-05-19T15:08:48;20.09;30.81
67131;HTU21D;54051;53.464;49.532;2023-05-19T15:11:13;20.10;31.25
67131;HTU21D;54051;53.464;49.532;2023-05-19T15:13:39;19.90;31.91
67131;HTU21D;54051;53.464;49.532;2023-05-19T15:16:05;19.71;32.86
67131;HTU21D;54051;53.464;49.532;2023-05-19T15:18:37;19.71;33.03
67131;HTU21D;54051;53.464;49.532;2023-05-19T15:21:03;19.75;33.34
67131;HTU21D;54051;53.464;49.532;2023-05-19T15:23:29;19.74;33.53
67131;HTU21D;54051;53.464;49.532;2023-05-19T15:25:55;19.62;33.63
67131;HTU21D;54051;53.464;49.532;2023-05-19T15:28:21;19.60;34.03
67131;HTU21D;54051;53.464;49.532;2023-05-19T15:30:47;19.80;33.21
67131;HTU21D;54051;53.464;49.532;2023-05-19T15:33:13;19.73;33.69
67131;HTU21D;54051;53.464;49.532;2023-05-19T15:35:39;19.61;33.99
67131;HTU21D;54051;53.464;49.532;2023-05-19T15:38:05;19.43;35.02
67131;HTU21D;54051;53.464;49.532;2023-05-19T15:40:31;19.43;35.30
67131;HTU21D;54051;53.464;49.532;2023-05-19T15:42:57;19.44;35.20
67131;HTU21D;54051;53.464;49.532;2023-05-19T15:45:23;19.35;35.60